createdAt,value
2022-08-05T00:01:36.124Z,6.97
2022-08-05T00:04:08.446Z,8.30
2022-08-05T00:06:38.944Z,7.13
2022-08-05T00:09:13.143Z,7.20
2022-08-05T00:11:48.751Z,6.88
2022-08-05T00:14:27.658Z,6.95
2022-08-05T00:16:58.593Z,7.60
2022-08-05T00:19:33.663Z,7.22
2022-08-05T00:22:11.142Z,7.20
2022-08-05T00:24:42.336Z,7.63
2022-08-05T00:27:16.554Z,7.93
2022-08-05T00:29:46.069Z,7.45
2022-08-05T00:32:15.682Z,7.95
2022-08-05T00:35:06.116Z,7.93
2022-08-05T00:37:52.547Z,8.02
2022-08-05T00:40:28.093Z,8.43
2022-08-05T00:43:00.417Z,7.57
2022-08-05T00:45:42.996Z,6.97
2022-08-05T00:48:14.074Z,7.55
2022-08-05T00:50:46.658Z,7.03
2022-08-05T00:54:00.001Z,7.72
2022-08-05T00:56:09.401Z,7.95
2022-08-05T00:58:39.457Z,6.53
2022-08-05T01:01:12.875Z,7.05
2022-08-05T01:03:43.015Z,7.15
2022-08-05T01:06:18.827Z,7.40
2022-08-05T01:08:50.134Z,6.80
2022-08-05T01:11:33.596Z,7.53
2022-08-05T01:14:15.857Z,6.38
2022-08-05T01:16:52.322Z,6.93
2022-08-05T01:20:02.149Z,6.75
2022-08-05T01:23:15.230Z,6.07
2022-08-05T01:26:19.949Z,7.68
2022-08-05T01:28:58.475Z,8.88
2022-08-05T01:31:44.575Z,7.28
2022-08-05T01:34:32.006Z,7.32
2022-08-05T01:37:24.957Z,6.32
2022-08-05T01:40:08.380Z,6.60
2022-08-05T01:42:43.399Z,8.55
2022-08-05T01:45:17.860Z,7.95
2022-08-05T01:47:54.459Z,8.07
2022-08-05T01:50:31.333Z,6.50
2022-08-05T01:53:05.679Z,7.05
2022-08-05T01:55:39.218Z,6.85
2022-08-05T01:58:15.416Z,7.07
2022-08-05T02:00:53.203Z,8.57
2022-08-05T02:03:31.610Z,6.78
2022-08-05T02:06:33.197Z,7.22
2022-08-05T02:08:58.966Z,7.47
2022-08-05T02:11:42.308Z,9.52
2022-08-05T02:14:28.215Z,9.02
2022-08-05T02:17:07.905Z,10.23
2022-08-05T02:19:53.936Z,9.60
2022-08-05T02:22:29.918Z,7.85
2022-08-05T02:25:07.425Z,7.65
2022-08-05T02:27:58.134Z,7.50
2022-08-05T02:30:51.548Z,7.45
2022-08-05T02:33:36.008Z,7.75
2022-08-05T02:36:15.631Z,8.27
2022-08-05T02:38:53.183Z,10.80
2022-08-05T02:41:28.834Z,11.02
2022-08-05T02:44:13.276Z,7.90
2022-08-05T02:46:58.902Z,10.88
2022-08-05T02:49:37.716Z,11.05
2022-08-05T02:52:13.539Z,11.32
2022-08-05T02:54:56.478Z,9.32
2022-08-05T02:58:09.288Z,7.88
2022-08-05T03:00:18.158Z,8.10
2022-08-05T03:02:49.770Z,7.22
2022-08-05T03:06:56.394Z,8.35
2022-08-05T03:08:13.372Z,6.30
2022-08-05T03:10:44.787Z,16.52
2022-08-05T03:13:52.058Z,8.82
2022-08-05T03:16:22.654Z,6.10
2022-08-05T03:18:51.857Z,6.53
2022-08-05T03:21:22.622Z,5.70
2022-08-05T03:23:59.334Z,8.70
2022-08-05T03:26:30.938Z,7.40
2022-08-05T03:29:01.801Z,5.35
2022-08-05T03:31:56.145Z,5.50
2022-08-05T03:34:20.811Z,6.50
2022-08-05T03:36:55.073Z,7.75
2022-08-05T03:39:27.306Z,8.35
2022-08-05T03:41:56.983Z,6.55
2022-08-05T03:44:29.022Z,6.80
2022-08-05T03:49:31.078Z,8.82
2022-08-05T03:52:38.978Z,7.43
2022-08-05T03:56:05.757Z,9.27
2022-08-05T03:58:28.837Z,8.65
2022-08-05T04:01:04.030Z,6.40
2022-08-05T04:03:38.166Z,8.98
2022-08-05T04:06:08.888Z,6.93
2022-08-05T04:08:39.752Z,10.32
2022-08-05T04:11:09.910Z,7.65
2022-08-05T04:13:50.873Z,9.98
2022-08-05T04:16:24.104Z,8.27
2022-08-05T04:19:00.320Z,6.10
2022-08-05T04:22:09.351Z,8.43
2022-08-05T04:24:22.970Z,7.22
2022-08-05T04:26:51.972Z,8.77
2022-08-05T04:29:21.142Z,8.70
2022-08-05T04:31:52.006Z,6.10
2022-08-05T04:34:32.498Z,7.65
2022-08-05T04:37:05.651Z,6.97
2022-08-05T04:39:36.025Z,5.22
2022-08-05T04:42:06.254Z,8.27
2022-08-05T04:44:35.529Z,8.52
2022-08-05T04:47:08.817Z,7.45
2022-08-05T04:50:01.474Z,8.85
2022-08-05T04:52:28.473Z,7.20
2022-08-05T04:54:58.917Z,7.90
2022-08-05T04:57:47.463Z,8.63
2022-08-05T05:00:18.067Z,7.43
2022-08-05T05:02:47.155Z,7.60
2022-08-05T05:05:26.552Z,6.47
2022-08-05T05:08:02.540Z,4.95
2022-08-05T05:10:38.710Z,6.95
2022-08-05T05:13:10.574Z,8.27
2022-08-05T05:15:57.418Z,7.57
2022-08-05T05:18:33.340Z,7.35
2022-08-05T05:21:05.579Z,7.78
2022-08-05T05:24:02.179Z,6.97
2022-08-05T05:26:28.288Z,6.65
2022-08-05T05:29:02.670Z,7.07
2022-08-05T05:31:46.295Z,9.93
2022-08-05T05:36:45.710Z,7.13
2022-08-05T05:39:16.221Z,7.57
2022-08-05T05:41:54.148Z,7.30
2022-08-05T05:44:36.621Z,7.80
2022-08-05T05:47:21.733Z,6.93
2022-08-05T05:49:56.541Z,9.52
2022-08-05T05:52:33.164Z,7.60
2022-08-05T05:55:13.555Z,7.63
2022-08-05T05:57:52.586Z,7.43
2022-08-05T06:00:31.510Z,6.60
2022-08-05T06:03:03.021Z,8.00
2022-08-05T06:05:32.343Z,6.53
2022-08-05T06:08:03.862Z,7.15
2022-08-05T06:10:36.576Z,7.68
2022-08-05T06:13:07.766Z,4.70
2022-08-05T06:16:27.409Z,7.55
2022-08-05T06:18:31.262Z,7.53
2022-08-05T06:21:01.498Z,8.48
2022-08-05T06:23:43.656Z,11.82
2022-08-05T06:26:21.272Z,13.68
2022-08-05T06:28:52.304Z,10.90
2022-08-05T06:31:22.000Z,12.18
2022-08-05T06:34:07.700Z,12.73
2022-08-05T06:36:57.851Z,7.32
2022-08-05T06:39:28.197Z,6.82
2022-08-05T06:41:58.803Z,7.18
2022-08-05T06:44:30.097Z,6.47
2022-08-05T06:46:59.681Z,4.93
2022-08-05T06:50:00.759Z,6.50
2022-08-05T06:52:37.244Z,4.38
2022-08-05T06:55:08.421Z,4.90
2022-08-05T06:57:57.564Z,6.70
2022-08-05T07:00:29.619Z,6.28
2022-08-05T07:02:58.690Z,4.68
2022-08-05T07:05:37.154Z,4.57
2022-08-05T07:08:10.948Z,4.68
2022-08-05T07:10:53.263Z,4.03
2022-08-05T07:13:59.431Z,7.63
2022-08-05T07:18:00.996Z,7.45
2022-08-05T07:20:23.028Z,5.47
2022-08-05T07:22:30.047Z,6.63
2022-08-05T07:25:21.908Z,4.43
2022-08-05T07:27:58.772Z,5.60
2022-08-05T07:30:34.025Z,5.57
2022-08-05T07:33:09.561Z,5.32
2022-08-05T07:36:04.200Z,4.70
2022-08-05T07:38:34.727Z,5.55
2022-08-05T07:42:08.400Z,4.05
2022-08-05T07:43:59.027Z,5.28
2022-08-05T07:46:30.946Z,4.80
2022-08-05T07:49:06.238Z,4.00
2022-08-05T07:51:54.563Z,2.95
2022-08-05T07:54:31.413Z,6.13
2022-08-05T07:57:22.566Z,3.92
2022-08-05T07:59:53.621Z,6.32
2022-08-05T08:02:31.293Z,5.50
2022-08-05T08:05:17.677Z,5.50
2022-08-05T08:08:00.129Z,2.80
2022-08-05T08:10:30.463Z,4.90
2022-08-05T08:12:59.896Z,3.47
2022-08-05T08:16:34.606Z,6.50
2022-08-05T08:18:20.888Z,4.22
2022-08-05T08:21:02.964Z,3.80
2022-08-05T08:24:01.500Z,4.50
2022-08-05T08:26:26.834Z,4.15
2022-08-05T08:29:22.012Z,3.92
2022-08-05T08:31:49.854Z,4.50
2022-08-05T08:34:30.256Z,6.15
2022-08-05T08:37:05.202Z,3.65
2022-08-05T08:39:37.534Z,5.03
2022-08-05T08:42:32.435Z,5.50
2022-08-05T08:45:22.114Z,5.18
2022-08-05T08:48:07.558Z,4.85
2022-08-05T08:51:04.052Z,6.82
2022-08-05T08:53:45.185Z,5.47
2022-08-05T08:56:14.602Z,4.57
2022-08-05T08:58:47.842Z,7.03
2022-08-05T09:01:19.011Z,5.90
2022-08-05T09:03:54.576Z,5.68
2022-08-05T09:06:29.961Z,6.53
2022-08-05T09:09:02.973Z,2.83
2022-08-05T09:11:51.249Z,3.00
2022-08-05T09:14:58.769Z,3.67
2022-08-05T09:17:16.155Z,3.58
2022-08-05T09:20:08.410Z,3.08
2022-08-05T09:23:08.983Z,4.03
2022-08-05T09:26:03.977Z,3.17
2022-08-05T09:28:32.477Z,9.07
2022-08-05T09:31:22.614Z,3.50
2022-08-05T09:33:59.117Z,5.07
2022-08-05T09:36:54.193Z,4.57
2022-08-05T09:39:41.470Z,3.72
2022-08-05T09:42:24.389Z,2.65
2022-08-05T09:45:17.701Z,2.85
2022-08-05T09:47:56.016Z,4.63
2022-08-05T09:50:38.157Z,2.95
2022-08-05T09:53:23.185Z,2.17
2022-08-05T09:56:04.757Z,1.63
2022-08-05T09:58:43.704Z,2.50
2022-08-05T10:01:31.602Z,2.50
2022-08-05T10:04:10.622Z,3.03
2022-08-05T10:06:41.463Z,2.10
2022-08-05T10:09:27.489Z,2.00
2022-08-05T10:12:30.629Z,1.83
2022-08-05T10:15:17.348Z,1.98
2022-08-05T10:18:09.968Z,1.60
2022-08-05T10:20:44.186Z,1.55
2022-08-05T10:23:33.881Z,2.10
2022-08-05T10:26:14.458Z,1.70
2022-08-05T10:28:45.212Z,1.65
2022-08-05T10:32:48.233Z,1.60
2022-08-05T10:34:08.476Z,1.63
2022-08-05T10:36:38.912Z,2.05
2022-08-05T10:39:24.622Z,2.30
2022-08-05T10:42:14.593Z,2.22
2022-08-05T10:44:51.554Z,2.00
2022-08-05T10:47:26.198Z,2.10
2022-08-05T10:50:32.299Z,2.28
2022-08-05T10:52:58.709Z,2.83
2022-08-05T10:55:30.305Z,2.50
2022-08-05T10:58:11.234Z,2.72
2022-08-05T11:00:48.416Z,2.75
2022-08-05T11:03:27.110Z,2.17
2022-08-05T11:06:08.314Z,2.50
2022-08-05T11:08:39.382Z,3.38
2022-08-05T11:11:52.143Z,2.60
2022-08-05T11:14:49.438Z,2.40
2022-08-05T11:18:07.390Z,2.75
2022-08-05T11:20:43.867Z,2.70
2022-08-05T11:24:02.515Z,2.60
2022-08-05T11:26:28.904Z,2.72
2022-08-05T11:29:12.331Z,2.92
2022-08-05T11:31:58.579Z,2.63
2022-08-05T11:34:38.938Z,2.70
2022-08-05T11:38:26.390Z,2.05
2022-08-05T11:40:02.682Z,2.30
2022-08-05T11:42:37.830Z,2.28
2022-08-05T11:45:14.450Z,2.78
2022-08-05T11:47:56.348Z,2.05
2022-08-05T11:50:26.871Z,3.97
2022-08-05T11:52:58.440Z,2.30
2022-08-05T11:55:32.164Z,4.00
2022-08-05T11:58:10.029Z,3.30
2022-08-05T12:00:44.492Z,2.90
2022-08-05T12:03:29.309Z,4.47
2022-08-05T12:06:05.858Z,3.95
2022-08-05T12:08:50.633Z,4.63
2022-08-05T12:11:22.208Z,3.50
2022-08-05T12:13:58.696Z,3.33
2022-08-05T12:16:31.318Z,3.28
2022-08-05T12:19:00.920Z,3.65
2022-08-05T12:21:33.617Z,3.33
2022-08-05T12:24:11.633Z,3.60
2022-08-05T12:26:44.150Z,3.10
2022-08-05T12:29:16.177Z,3.63
2022-08-05T12:31:54.321Z,2.53
2022-08-05T12:34:28.280Z,4.30
2022-08-05T12:36:59.168Z,2.60
2022-08-05T12:39:34.752Z,3.40
2022-08-05T12:42:14.873Z,4.30
2022-08-05T12:44:45.991Z,3.58
2022-08-05T12:47:30.602Z,4.80
2022-08-05T12:50:03.594Z,2.42
2022-08-05T12:52:38.782Z,2.45
2022-08-05T12:55:25.161Z,4.30
2022-08-05T12:58:39.161Z,1.73
2022-08-05T13:03:41.959Z,1.93
2022-08-05T13:06:17.171Z,2.22
2022-08-05T13:08:51.597Z,1.80
2022-08-05T13:12:01.025Z,2.15
2022-08-05T13:14:24.776Z,1.88
2022-08-05T13:17:10.167Z,2.17
2022-08-05T13:19:52.396Z,2.90
2022-08-05T13:22:28.314Z,2.97
2022-08-05T13:25:05.140Z,1.95
2022-08-05T13:27:39.351Z,1.98
2022-08-05T13:30:34.629Z,2.63
2022-08-05T13:33:01.212Z,2.13
2022-08-05T13:35:47.515Z,1.85
2022-08-05T13:38:31.028Z,2.28
2022-08-05T13:41:03.782Z,2.30
2022-08-05T13:43:44.738Z,2.23
2022-08-05T13:46:43.772Z,3.60
2022-08-05T13:49:13.654Z,2.28
2022-08-05T13:51:45.779Z,2.88
2022-08-05T13:54:24.834Z,2.25
2022-08-05T13:56:54.516Z,1.95
2022-08-05T13:59:27.173Z,2.85
2022-08-05T14:02:00.149Z,2.10
2022-08-05T14:04:50.860Z,1.95
2022-08-05T14:07:55.458Z,3.28
2022-08-05T14:10:14.047Z,3.05
2022-08-05T14:12:49.121Z,4.93
2022-08-05T14:16:07.195Z,2.20
2022-08-05T14:20:48.690Z,2.20
2022-08-05T14:23:24.648Z,2.30
2022-08-05T14:25:58.551Z,2.00
2022-08-05T14:28:29.661Z,2.00
2022-08-05T14:31:01.383Z,3.13
2022-08-05T14:34:00.089Z,1.73
2022-08-05T14:36:25.599Z,4.70
2022-08-05T14:38:55.332Z,1.70
2022-08-05T14:41:24.958Z,2.90
2022-08-05T14:44:00.146Z,1.75
2022-08-05T14:46:36.557Z,3.38
2022-08-05T14:49:08.342Z,2.53
2022-08-05T14:51:39.024Z,3.25
2022-08-05T14:54:28.223Z,2.70
2022-08-05T14:57:05.323Z,5.05
2022-08-05T14:59:38.824Z,2.45
2022-08-05T15:02:14.704Z,3.35
2022-08-05T15:04:47.882Z,3.08
2022-08-05T15:08:06.256Z,2.47
2022-08-05T15:10:10.138Z,8.80
2022-08-05T15:12:59.859Z,3.53
2022-08-05T15:15:55.609Z,2.05
2022-08-05T15:18:21.760Z,2.53
2022-08-05T15:20:51.042Z,2.00
2022-08-05T15:23:20.541Z,3.67
2022-08-05T15:25:52.302Z,4.57
2022-08-05T15:28:27.112Z,3.83
2022-08-05T15:30:57.594Z,2.20
2022-08-05T15:34:05.507Z,2.30
2022-08-05T15:40:41.546Z,2.45
2022-08-05T15:41:58.045Z,3.15
2022-08-05T15:44:30.334Z,2.53
2022-08-05T15:47:03.618Z,2.90
2022-08-05T15:49:52.076Z,2.28
2022-08-05T15:52:51.575Z,2.78
2022-08-05T15:55:15.632Z,2.33
2022-08-05T15:57:46.003Z,5.57
2022-08-05T16:00:26.005Z,3.08
2022-08-05T16:03:07.894Z,3.10
2022-08-05T16:05:39.028Z,3.58
2022-08-05T16:08:10.784Z,2.70
2022-08-05T16:10:45.071Z,2.70
2022-08-05T16:13:19.283Z,2.42
2022-08-05T16:15:53.577Z,2.65
2022-08-05T16:18:28.102Z,2.13
2022-08-05T16:20:59.908Z,2.10
2022-08-05T16:23:53.657Z,3.72
2022-08-05T16:26:26.590Z,3.25
2022-08-05T16:28:56.710Z,3.40
2022-08-05T16:31:25.793Z,5.55
2022-08-05T16:34:14.997Z,8.38
2022-08-05T16:38:01.693Z,13.23
2022-08-05T16:40:26.499Z,11.30
2022-08-05T16:43:19.220Z,8.32
2022-08-05T16:46:23.784Z,6.63
2022-08-05T16:49:17.817Z,6.35
2022-08-05T16:51:57.009Z,4.00
2022-08-05T16:54:33.176Z,3.85
2022-08-05T16:57:02.350Z,2.97
2022-08-05T16:59:31.727Z,3.42
2022-08-05T17:02:01.104Z,3.97
2022-08-05T17:04:30.766Z,2.90
2022-08-05T17:07:01.867Z,3.10
2022-08-05T17:09:55.949Z,2.28
2022-08-05T17:12:50.638Z,3.05
2022-08-05T17:15:15.847Z,3.03
2022-08-05T17:17:54.712Z,5.68
2022-08-05T17:20:25.180Z,8.05
2022-08-05T17:22:57.510Z,6.15
2022-08-05T17:25:39.227Z,4.55
2022-08-05T17:30:42.425Z,2.83
2022-08-05T17:33:20.118Z,4.38
2022-08-05T17:36:08.397Z,4.32
2022-08-05T17:38:39.903Z,2.78
2022-08-05T17:41:11.713Z,3.22
2022-08-05T17:44:00.126Z,3.93
2022-08-05T17:46:31.563Z,3.78
2022-08-05T17:49:05.027Z,3.92
2022-08-05T17:51:40.140Z,3.63
2022-08-05T17:54:10.232Z,7.03
2022-08-05T17:56:40.465Z,4.32
2022-08-05T17:59:16.061Z,4.70
2022-08-05T18:01:51.712Z,4.85
2022-08-05T18:04:21.467Z,4.45
2022-08-05T18:07:00.572Z,5.10
2022-08-05T18:09:59.543Z,4.28
2022-08-05T18:12:24.365Z,4.78
2022-08-05T18:14:53.587Z,5.80
2022-08-05T18:18:00.709Z,4.43
2022-08-05T18:20:14.118Z,3.50
2022-08-05T18:22:54.087Z,4.13
2022-08-05T18:25:25.145Z,6.00
2022-08-05T18:27:55.632Z,5.55
2022-08-05T18:33:00.901Z,3.90
2022-08-05T18:36:01.421Z,3.80
2022-08-05T18:38:26.488Z,4.32
2022-08-05T18:44:33.067Z,3.97
2022-08-05T18:47:05.047Z,4.18
2022-08-05T18:49:57.398Z,4.78
2022-08-05T18:52:36.938Z,5.38
2022-08-05T18:55:21.465Z,4.70
2022-08-05T18:57:53.350Z,5.90
2022-08-05T19:03:55.191Z,4.18
2022-08-05T19:06:55.096Z,6.57
2022-08-05T19:09:46.060Z,4.18
2022-08-05T19:12:53.588Z,4.95
2022-08-05T19:15:57.559Z,6.60
2022-08-05T19:18:39.775Z,6.07
2022-08-05T19:21:25.187Z,6.43
2022-08-05T19:24:07.943Z,7.60
2022-08-05T19:26:54.967Z,9.45
2022-08-05T19:29:35.739Z,40.58
2022-08-05T19:32:26.167Z,36.92
2022-08-05T19:35:55.729Z,37.95
2022-08-05T19:38:35.728Z,28.05
2022-08-05T19:42:05.330Z,19.58
2022-08-05T19:44:50.516Z,9.55
2022-08-05T19:47:55.715Z,8.77
2022-08-05T19:51:56.342Z,8.25
2022-08-05T19:54:29.420Z,11.45
2022-08-05T19:57:18.566Z,12.15
2022-08-05T20:00:04.227Z,11.48
2022-08-05T20:02:36.339Z,11.10
2022-08-05T20:05:24.583Z,11.10
2022-08-05T20:08:44.041Z,10.57
2022-08-05T20:11:19.471Z,11.02
2022-08-05T20:13:58.097Z,11.75
2022-08-05T20:16:43.812Z,9.68
2022-08-05T20:19:13.051Z,11.95
2022-08-05T20:21:46.034Z,12.02
2022-08-05T20:24:29.441Z,12.75
2022-08-05T20:26:59.814Z,12.35
2022-08-05T20:29:37.430Z,13.20
2022-08-05T20:32:10.220Z,14.30
2022-08-05T20:34:39.744Z,13.77
2022-08-05T20:37:24.265Z,13.75
2022-08-05T20:40:09.481Z,13.00
2022-08-05T20:42:41.985Z,12.88
2022-08-05T20:45:12.952Z,13.60
2022-08-05T20:47:41.942Z,13.50
2022-08-05T20:50:12.362Z,16.25
2022-08-05T20:52:44.361Z,15.77
2022-08-05T20:56:08.062Z,17.88
2022-08-05T20:58:08.482Z,15.23
2022-08-05T21:00:52.117Z,16.15
2022-08-05T21:03:26.324Z,13.48
2022-08-05T21:05:55.591Z,11.20
2022-08-05T21:08:46.071Z,8.07
2022-08-05T21:12:10.519Z,8.05
2022-08-05T21:14:26.707Z,8.45
2022-08-05T21:16:56.049Z,11.77
2022-08-05T21:19:28.389Z,9.98
2022-08-05T21:21:57.479Z,9.77
2022-08-05T21:24:26.519Z,10.30
2022-08-05T21:26:58.310Z,14.30
2022-08-05T21:29:31.939Z,8.98
2022-08-05T21:32:03.583Z,10.15
2022-08-05T21:34:32.966Z,9.43
2022-08-05T21:37:08.773Z,10.45
2022-08-05T21:39:40.603Z,9.02
2022-08-05T21:45:00.065Z,10.95
2022-08-05T21:47:54.993Z,9.15
2022-08-05T21:50:18.595Z,10.40
2022-08-05T21:52:47.680Z,10.85
2022-08-05T21:55:17.164Z,11.05
2022-08-05T21:57:47.443Z,11.98
2022-08-05T22:00:18.518Z,12.38
2022-08-05T22:02:47.970Z,11.52
2022-08-05T22:05:17.768Z,10.23
2022-08-05T22:07:59.457Z,9.80
2022-08-05T22:10:31.521Z,9.95
2022-08-05T22:14:05.087Z,10.40
2022-08-05T22:16:01.136Z,8.88
2022-08-05T22:18:31.109Z,9.73
2022-08-05T22:21:04.073Z,7.82
2022-08-05T22:24:02.076Z,7.05
2022-08-05T22:26:55.318Z,7.53
2022-08-05T22:29:26.125Z,7.28
2022-08-05T22:32:02.637Z,6.35
2022-08-05T22:34:32.876Z,6.13
2022-08-05T22:37:04.033Z,6.72
2022-08-05T22:39:35.041Z,5.82
2022-08-05T22:42:12.327Z,5.85
2022-08-05T22:44:53.491Z,8.70
2022-08-05T22:47:29.951Z,6.00
2022-08-05T22:50:20.330Z,5.15
2022-08-05T22:52:51.382Z,5.50
2022-08-05T22:55:23.013Z,4.57
2022-08-05T22:57:53.671Z,5.80
2022-08-05T23:00:26.609Z,4.07
2022-08-05T23:05:27.603Z,5.50
2022-08-05T23:07:56.594Z,5.78
2022-08-05T23:10:25.605Z,3.80
2022-08-05T23:12:55.943Z,4.07
2022-08-05T23:15:26.988Z,4.10
2022-08-05T23:18:03.646Z,5.38
2022-08-05T23:20:37.566Z,4.15
2022-08-05T23:23:08.883Z,4.32
2022-08-05T23:25:53.523Z,4.53
2022-08-05T23:28:26.910Z,5.80
2022-08-05T23:31:02.321Z,7.32
2022-08-05T23:34:04.084Z,3.90
2022-08-05T23:36:40.149Z,4.32
2022-08-05T23:39:17.687Z,4.88
2022-08-05T23:42:01.729Z,4.15
2022-08-05T23:44:32.247Z,4.35
2022-08-05T23:47:14.497Z,4.88
2022-08-05T23:49:47.640Z,4.63
2022-08-05T23:52:30.527Z,4.82
2022-08-05T23:55:02.543Z,3.65
2022-08-05T23:57:37.385Z,4.28
